sensor_id;sensor_type;location;lat;lon;timestamp;P1;durP1;ratioP1;P2;durP2;ratioP2
59416;SDS011;45222;52.458;20.914;2023-11-19T00:03:07;33.40;;;24.50;;
59416;SDS011;45222;52.458;20.914;2023-11-19T00:06:54;30.80;;;12.10;;
59416;SDS011;45222;52.458;20.914;2023-11-19T00:10:45;37.30;;;30.40;;
59416;SDS011;45222;52.458;20.914;2023-11-19T00:14:30;36.50;;;28.90;;
59416;SDS011;45222;52.458;20.914;2023-11-19T00:18:15;33.30;;;26.30;;
59416;SDS011;45222;52.458;20.914;2023-11-19T00:22:01;33.40;;;25.60;;
59416;SDS011;45222;52.458;20.914;2023-11-19T00:25:47;24.30;;;11.80;;
59416;SDS011;45222;52.458;20.914;2023-11-19T00:29:33;33.70;;;27.50;;
59416;SDS011;45222;52.458;20.914;2023-11-19T00:33:19;34.20;;;27.70;;
59416;SDS011;45222;52.458;20.914;2023-11-19T00:37:04;35.00;;;27.70;;
59416;SDS011;45222;52.458;20.914;2023-11-19T00:40:50;37.10;;;28.40;;
59416;SDS011;45222;52.458;20.914;2023-11-19T00:44:35;33.40;;;24.30;;
59416;SDS011;45222;52.458;20.914;2023-11-19T00:48:21;29.30;;;23.00;;
59416;SDS011;45222;52.458;20.914;2023-11-19T00:52:06;29.70;;;23.40;;
59416;SDS011;45222;52.458;20.914;2023-11-19T00:55:51;31.70;;;24.20;;
59416;SDS011;45222;52.458;20.914;2023-11-19T00:59:36;26.80;;;11.70;;
59416;SDS011;45222;52.458;20.914;2023-11-19T01:03:22;31.70;;;24.80;;
59416;SDS011;45222;52.458;20.914;2023-11-19T01:07:07;29.40;;;23.30;;
59416;SDS011;45222;52.458;20.914;2023-11-19T01:10:56;30.70;;;23.20;;
59416;SDS011;45222;52.458;20.914;2023-11-19T01:14:41;28.80;;;23.80;;
59416;SDS011;45222;52.458;20.914;2023-11-19T01:18:26;31.60;;;25.00;;
59416;SDS011;45222;52.458;20.914;2023-11-19T01:22:11;25.30;;;11.40;;
59416;SDS011;45222;52.458;20.914;2023-11-19T01:25:56;35.50;;;27.00;;
59416;SDS011;45222;52.458;20.914;2023-11-19T01:29:41;28.10;;;11.30;;
59416;SDS011;45222;52.458;20.914;2023-11-19T01:33:26;29.90;;;23.50;;
59416;SDS011;45222;52.458;20.914;2023-11-19T01:37:11;30.20;;;23.00;;
59416;SDS011;45222;52.458;20.914;2023-11-19T01:40:57;25.90;;;11.50;;
59416;SDS011;45222;52.458;20.914;2023-11-19T01:44:53;32.90;;;25.30;;
59416;SDS011;45222;52.458;20.914;2023-11-19T01:48:42;32.90;;;26.00;;
59416;SDS011;45222;52.458;20.914;2023-11-19T01:52:28;33.70;;;26.90;;
59416;SDS011;45222;52.458;20.914;2023-11-19T01:56:14;31.90;;;24.60;;
59416;SDS011;45222;52.458;20.914;2023-11-19T02:00:00;26.50;;;12.00;;
59416;SDS011;45222;52.458;20.914;2023-11-19T02:03:46;29.10;;;22.90;;
59416;SDS011;45222;52.458;20.914;2023-11-19T02:07:32;32.60;;;25.70;;
59416;SDS011;45222;52.458;20.914;2023-11-19T02:11:17;35.40;;;27.40;;
59416;SDS011;45222;52.458;20.914;2023-11-19T02:15:02;36.20;;;27.30;;
59416;SDS011;45222;52.458;20.914;2023-11-19T02:18:47;37.00;;;28.40;;
59416;SDS011;45222;52.458;20.914;2023-11-19T02:22:33;28.90;;;12.30;;
59416;SDS011;45222;52.458;20.914;2023-11-19T02:26:18;33.60;;;25.50;;
59416;SDS011;45222;52.458;20.914;2023-11-19T02:30:11;31.10;;;24.20;;
59416;SDS011;45222;52.458;20.914;2023-11-19T02:34:31;33.70;;;25.70;;
59416;SDS011;45222;52.458;20.914;2023-11-19T02:38:16;34.00;;;26.10;;
59416;SDS011;45222;52.458;20.914;2023-11-19T02:42:01;33.30;;;25.30;;
59416;SDS011;45222;52.458;20.914;2023-11-19T02:45:47;34.60;;;26.70;;
59416;SDS011;45222;52.458;20.914;2023-11-19T02:49:32;32.10;;;24.50;;
59416;SDS011;45222;52.458;20.914;2023-11-19T02:53:17;27.10;;;11.70;;
59416;SDS011;45222;52.458;20.914;2023-11-19T02:57:05;30.80;;;23.40;;
59416;SDS011;45222;52.458;20.914;2023-11-19T03:00:52;30.10;;;24.50;;
59416;SDS011;45222;52.458;20.914;2023-11-19T03:04:40;35.30;;;27.00;;
59416;SDS011;45222;52.458;20.914;2023-11-19T03:08:29;34.70;;;27.70;;
59416;SDS011;45222;52.458;20.914;2023-11-19T03:12:14;34.10;;;26.90;;
59416;SDS011;45222;52.458;20.914;2023-11-19T03:15:59;34.20;;;25.30;;
59416;SDS011;45222;52.458;20.914;2023-11-19T03:19:44;30.90;;;23.90;;
59416;SDS011;45222;52.458;20.914;2023-11-19T03:23:29;31.90;;;23.80;;
59416;SDS011;45222;52.458;20.914;2023-11-19T03:27:14;35.20;;;26.00;;
59416;SDS011;45222;52.458;20.914;2023-11-19T03:30:59;33.70;;;25.70;;
59416;SDS011;45222;52.458;20.914;2023-11-19T03:34:45;37.10;;;28.70;;
59416;SDS011;45222;52.458;20.914;2023-11-19T03:38:30;25.90;;;11.50;;
59416;SDS011;45222;52.458;20.914;2023-11-19T03:42:15;37.00;;;12.30;;
59416;SDS011;45222;52.458;20.914;2023-11-19T03:46:00;35.90;;;27.40;;
59416;SDS011;45222;52.458;20.914;2023-11-19T03:49:47;33.00;;;12.90;;
59416;SDS011;45222;52.458;20.914;2023-11-19T03:53:33;34.30;;;26.60;;
59416;SDS011;45222;52.458;20.914;2023-11-19T03:57:18;36.00;;;26.60;;
59416;SDS011;45222;52.458;20.914;2023-11-19T04:01:04;35.80;;;27.00;;
59416;SDS011;45222;52.458;20.914;2023-11-19T04:04:49;27.10;;;11.40;;
59416;SDS011;45222;52.458;20.914;2023-11-19T04:08:35;30.90;;;11.60;;
59416;SDS011;45222;52.458;20.914;2023-11-19T04:12:20;39.90;;;29.40;;
59416;SDS011;45222;52.458;20.914;2023-11-19T04:16:06;38.50;;;28.40;;
59416;SDS011;45222;52.458;20.914;2023-11-19T04:19:52;37.60;;;28.50;;
59416;SDS011;45222;52.458;20.914;2023-11-19T04:23:37;36.20;;;26.90;;
59416;SDS011;45222;52.458;20.914;2023-11-19T04:27:22;40.40;;;28.80;;
59416;SDS011;45222;52.458;20.914;2023-11-19T04:31:07;43.10;;;31.00;;
59416;SDS011;45222;52.458;20.914;2023-11-19T04:34:52;44.70;;;31.80;;
59416;SDS011;45222;52.458;20.914;2023-11-19T04:38:38;42.80;;;30.60;;
59416;SDS011;45222;52.458;20.914;2023-11-19T04:42:23;44.10;;;30.40;;
59416;SDS011;45222;52.458;20.914;2023-11-19T04:46:09;33.60;;;13.20;;
59416;SDS011;45222;52.458;20.914;2023-11-19T04:49:54;44.10;;;30.80;;
59416;SDS011;45222;52.458;20.914;2023-11-19T04:53:39;49.50;;;33.40;;
59416;SDS011;45222;52.458;20.914;2023-11-19T04:57:24;33.60;;;12.90;;
59416;SDS011;45222;52.458;20.914;2023-11-19T05:01:13;51.70;;;33.60;;
59416;SDS011;45222;52.458;20.914;2023-11-19T05:05:00;49.40;;;33.20;;
59416;SDS011;45222;52.458;20.914;2023-11-19T05:08:47;38.60;;;15.40;;
59416;SDS011;45222;52.458;20.914;2023-11-19T05:12:32;49.20;;;32.40;;
59416;SDS011;45222;52.458;20.914;2023-11-19T05:16:17;49.40;;;32.50;;
59416;SDS011;45222;52.458;20.914;2023-11-19T05:20:05;59.10;;;35.10;;
59416;SDS011;45222;52.458;20.914;2023-11-19T05:23:56;35.30;;;13.00;;
59416;SDS011;45222;52.458;20.914;2023-11-19T05:27:41;57.00;;;36.40;;
59416;SDS011;45222;52.458;20.914;2023-11-19T05:31:27;40.90;;;13.60;;
59416;SDS011;45222;52.458;20.914;2023-11-19T05:35:12;47.00;;;15.60;;
59416;SDS011;45222;52.458;20.914;2023-11-19T05:38:57;51.00;;;16.90;;
59416;SDS011;45222;52.458;20.914;2023-11-19T05:42:42;43.80;;;15.50;;
59416;SDS011;45222;52.458;20.914;2023-11-19T05:46:28;52.30;;;34.20;;
59416;SDS011;45222;52.458;20.914;2023-11-19T05:50:14;59.50;;;35.40;;
59416;SDS011;45222;52.458;20.914;2023-11-19T05:53:59;60.00;;;36.60;;
59416;SDS011;45222;52.458;20.914;2023-11-19T05:57:45;60.20;;;35.80;;
59416;SDS011;45222;52.458;20.914;2023-11-19T06:01:30;57.50;;;35.60;;
59416;SDS011;45222;52.458;20.914;2023-11-19T06:05:15;54.20;;;34.30;;
59416;SDS011;45222;52.458;20.914;2023-11-19T06:09:01;40.10;;;15.60;;
59416;SDS011;45222;52.458;20.914;2023-11-19T06:12:49;42.40;;;14.80;;
59416;SDS011;45222;52.458;20.914;2023-11-19T06:16:39;60.70;;;36.20;;
59416;SDS011;45222;52.458;20.914;2023-11-19T06:20:24;39.80;;;14.30;;
59416;SDS011;45222;52.458;20.914;2023-11-19T06:24:11;60.10;;;36.80;;
59416;SDS011;45222;52.458;20.914;2023-11-19T06:27:56;41.50;;;15.60;;
59416;SDS011;45222;52.458;20.914;2023-11-19T06:31:42;49.20;;;15.60;;
59416;SDS011;45222;52.458;20.914;2023-11-19T06:35:27;54.20;;;34.70;;
59416;SDS011;45222;52.458;20.914;2023-11-19T06:39:19;51.80;;;35.20;;
59416;SDS011;45222;52.458;20.914;2023-11-19T06:43:04;53.40;;;36.00;;
59416;SDS011;45222;52.458;20.914;2023-11-19T06:46:52;36.90;;;14.50;;
59416;SDS011;45222;52.458;20.914;2023-11-19T06:50:37;59.30;;;37.30;;
59416;SDS011;45222;52.458;20.914;2023-11-19T06:54:23;53.20;;;34.80;;
59416;SDS011;45222;52.458;20.914;2023-11-19T06:58:08;53.60;;;35.80;;
59416;SDS011;45222;52.458;20.914;2023-11-19T07:01:53;50.10;;;32.40;;
59416;SDS011;45222;52.458;20.914;2023-11-19T07:05:43;39.70;;;14.50;;
59416;SDS011;45222;52.458;20.914;2023-11-19T07:09:31;50.90;;;33.90;;
59416;SDS011;45222;52.458;20.914;2023-11-19T07:13:17;50.90;;;34.60;;
59416;SDS011;45222;52.458;20.914;2023-11-19T07:17:03;49.00;;;32.60;;
59416;SDS011;45222;52.458;20.914;2023-11-19T07:20:48;45.70;;;31.10;;
59416;SDS011;45222;52.458;20.914;2023-11-19T07:24:33;39.10;;;13.50;;
59416;SDS011;45222;52.458;20.914;2023-11-19T07:28:19;43.80;;;30.40;;
59416;SDS011;45222;52.458;20.914;2023-11-19T07:32:05;35.20;;;12.70;;
59416;SDS011;45222;52.458;20.914;2023-11-19T07:35:51;43.20;;;31.50;;
59416;SDS011;45222;52.458;20.914;2023-11-19T07:39:36;43.20;;;30.70;;
59416;SDS011;45222;52.458;20.914;2023-11-19T07:43:24;29.50;;;11.50;;
59416;SDS011;45222;52.458;20.914;2023-11-19T07:47:09;35.60;;;26.90;;
59416;SDS011;45222;52.458;20.914;2023-11-19T07:50:56;28.70;;;22.10;;
59416;SDS011;45222;52.458;20.914;2023-11-19T07:54:41;31.00;;;22.60;;
59416;SDS011;45222;52.458;20.914;2023-11-19T07:58:26;32.90;;;24.30;;
59416;SDS011;45222;52.458;20.914;2023-11-19T08:02:12;30.40;;;22.80;;
59416;SDS011;45222;52.458;20.914;2023-11-19T08:05:58;27.40;;;11.30;;
59416;SDS011;45222;52.458;20.914;2023-11-19T08:09:43;25.40;;;19.20;;
59416;SDS011;45222;52.458;20.914;2023-11-19T08:13:28;26.70;;;20.50;;
59416;SDS011;45222;52.458;20.914;2023-11-19T08:17:14;25.80;;;9.40;;
59416;SDS011;45222;52.458;20.914;2023-11-19T08:21:00;26.80;;;20.40;;
59416;SDS011;45222;52.458;20.914;2023-11-19T08:24:48;24.20;;;19.00;;
59416;SDS011;45222;52.458;20.914;2023-11-19T08:28:33;20.40;;;9.20;;
59416;SDS011;45222;52.458;20.914;2023-11-19T08:32:19;19.70;;;15.60;;
59416;SDS011;45222;52.458;20.914;2023-11-19T08:36:04;18.50;;;15.20;;
59416;SDS011;45222;52.458;20.914;2023-11-19T08:39:50;17.60;;;14.90;;
59416;SDS011;45222;52.458;20.914;2023-11-19T08:43:36;17.00;;;14.00;;
59416;SDS011;45222;52.458;20.914;2023-11-19T08:47:21;16.70;;;12.80;;
59416;SDS011;45222;52.458;20.914;2023-11-19T08:51:07;15.50;;;12.70;;
59416;SDS011;45222;52.458;20.914;2023-11-19T08:54:52;14.70;;;11.50;;
59416;SDS011;45222;52.458;20.914;2023-11-19T08:58:37;16.10;;;13.60;;
59416;SDS011;45222;52.458;20.914;2023-11-19T09:02:22;20.00;;;15.80;;
59416;SDS011;45222;52.458;20.914;2023-11-19T09:06:08;21.60;;;17.10;;
59416;SDS011;45222;52.458;20.914;2023-11-19T09:09:53;21.50;;;17.70;;
59416;SDS011;45222;52.458;20.914;2023-11-19T09:13:41;19.30;;;15.80;;
59416;SDS011;45222;52.458;20.914;2023-11-19T09:17:26;17.50;;;14.50;;
59416;SDS011;45222;52.458;20.914;2023-11-19T09:21:11;18.00;;;15.90;;
59416;SDS011;45222;52.458;20.914;2023-11-19T09:24:56;20.20;;;15.00;;
59416;SDS011;45222;52.458;20.914;2023-11-19T09:28:43;20.90;;;16.20;;
59416;SDS011;45222;52.458;20.914;2023-11-19T09:32:29;21.20;;;17.10;;
59416;SDS011;45222;52.458;20.914;2023-11-19T09:36:14;21.50;;;17.80;;
59416;SDS011;45222;52.458;20.914;2023-11-19T09:40:00;20.50;;;16.80;;
59416;SDS011;45222;52.458;20.914;2023-11-19T09:43:46;17.70;;;15.10;;
59416;SDS011;45222;52.458;20.914;2023-11-19T09:47:31;18.40;;;14.70;;
59416;SDS011;45222;52.458;20.914;2023-11-19T09:51:18;18.80;;;15.40;;
59416;SDS011;45222;52.458;20.914;2023-11-19T09:55:05;17.60;;;14.30;;
59416;SDS011;45222;52.458;20.914;2023-11-19T09:58:51;17.80;;;14.20;;
59416;SDS011;45222;52.458;20.914;2023-11-19T10:02:37;18.80;;;15.20;;
59416;SDS011;45222;52.458;20.914;2023-11-19T10:06:23;22.50;;;16.20;;
59416;SDS011;45222;52.458;20.914;2023-11-19T10:10:10;17.20;;;14.20;;
59416;SDS011;45222;52.458;20.914;2023-11-19T10:14:01;16.10;;;13.40;;
59416;SDS011;45222;52.458;20.914;2023-11-19T10:17:47;17.40;;;14.00;;
59416;SDS011;45222;52.458;20.914;2023-11-19T10:21:33;18.00;;;14.80;;
59416;SDS011;45222;52.458;20.914;2023-11-19T10:25:22;18.90;;;15.80;;
59416;SDS011;45222;52.458;20.914;2023-11-19T10:29:09;16.30;;;6.50;;
59416;SDS011;45222;52.458;20.914;2023-11-19T10:33:03;22.30;;;18.20;;
59416;SDS011;45222;52.458;20.914;2023-11-19T10:36:52;21.80;;;16.90;;
59416;SDS011;45222;52.458;20.914;2023-11-19T10:40:40;20.90;;;17.40;;
59416;SDS011;45222;52.458;20.914;2023-11-19T10:44:32;21.90;;;17.80;;
59416;SDS011;45222;52.458;20.914;2023-11-19T10:48:19;22.40;;;18.00;;
59416;SDS011;45222;52.458;20.914;2023-11-19T10:52:07;22.70;;;18.70;;
59416;SDS011;45222;52.458;20.914;2023-11-19T10:55:53;24.60;;;19.20;;
59416;SDS011;45222;52.458;20.914;2023-11-19T10:59:43;23.40;;;18.00;;
59416;SDS011;45222;52.458;20.914;2023-11-19T11:03:31;23.70;;;19.10;;
59416;SDS011;45222;52.458;20.914;2023-11-19T11:07:23;24.80;;;19.70;;
59416;SDS011;45222;52.458;20.914;2023-11-19T11:11:10;24.90;;;20.50;;
59416;SDS011;45222;52.458;20.914;2023-11-19T11:15:00;27.60;;;21.40;;
59416;SDS011;45222;52.458;20.914;2023-11-19T11:18:49;26.90;;;22.30;;
59416;SDS011;45222;52.458;20.914;2023-11-19T11:22:38;24.40;;;19.90;;
59416;SDS011;45222;52.458;20.914;2023-11-19T11:26:43;24.20;;;19.20;;
59416;SDS011;45222;52.458;20.914;2023-11-19T11:30:46;22.40;;;9.50;;
59416;SDS011;45222;52.458;20.914;2023-11-19T11:34:44;24.80;;;20.00;;
59416;SDS011;45222;52.458;20.914;2023-11-19T11:38:43;25.90;;;20.80;;
59416;SDS011;45222;52.458;20.914;2023-11-19T11:42:32;18.90;;;8.70;;
59416;SDS011;45222;52.458;20.914;2023-11-19T11:51:03;24.20;;;18.90;;
59416;SDS011;45222;52.458;20.914;2023-11-19T11:54:49;24.90;;;19.60;;
59416;SDS011;45222;52.458;20.914;2023-11-19T11:58:35;25.20;;;20.40;;
59416;SDS011;45222;52.458;20.914;2023-11-19T12:02:22;25.80;;;21.10;;
59416;SDS011;45222;52.458;20.914;2023-11-19T12:06:09;26.90;;;20.80;;
59416;SDS011;45222;52.458;20.914;2023-11-19T12:10:06;23.80;;;10.20;;
59416;SDS011;45222;52.458;20.914;2023-11-19T12:13:55;22.70;;;18.50;;
59416;SDS011;45222;52.458;20.914;2023-11-19T12:17:49;20.40;;;9.20;;
59416;SDS011;45222;52.458;20.914;2023-11-19T12:21:34;27.70;;;22.00;;
59416;SDS011;45222;52.458;20.914;2023-11-19T12:25:21;25.80;;;21.80;;
59416;SDS011;45222;52.458;20.914;2023-11-19T12:29:07;25.60;;;20.00;;
59416;SDS011;45222;52.458;20.914;2023-11-19T12:32:54;24.50;;;19.70;;
59416;SDS011;45222;52.458;20.914;2023-11-19T12:36:39;24.80;;;19.80;;
59416;SDS011;45222;52.458;20.914;2023-11-19T12:40:26;26.10;;;21.20;;
59416;SDS011;45222;52.458;20.914;2023-11-19T12:44:12;23.80;;;10.30;;
59416;SDS011;45222;52.458;20.914;2023-11-19T12:48:05;27.90;;;22.40;;
59416;SDS011;45222;52.458;20.914;2023-11-19T12:51:53;27.40;;;21.70;;
59416;SDS011;45222;52.458;20.914;2023-11-19T12:55:38;26.00;;;20.90;;
59416;SDS011;45222;52.458;20.914;2023-11-19T12:59:24;27.60;;;20.20;;
59416;SDS011;45222;52.458;20.914;2023-11-19T13:03:10;25.50;;;20.70;;
59416;SDS011;45222;52.458;20.914;2023-11-19T13:06:56;23.50;;;9.70;;
59416;SDS011;45222;52.458;20.914;2023-11-19T13:10:50;27.50;;;22.50;;
59416;SDS011;45222;52.458;20.914;2023-11-19T13:14:37;21.70;;;10.80;;
59416;SDS011;45222;52.458;20.914;2023-11-19T13:18:22;26.60;;;20.40;;
59416;SDS011;45222;52.458;20.914;2023-11-19T13:22:07;26.60;;;20.30;;
59416;SDS011;45222;52.458;20.914;2023-11-19T13:25:52;23.50;;;10.40;;
59416;SDS011;45222;52.458;20.914;2023-11-19T13:29:37;28.40;;;21.80;;
59416;SDS011;45222;52.458;20.914;2023-11-19T13:33:22;28.10;;;23.00;;
59416;SDS011;45222;52.458;20.914;2023-11-19T13:37:08;29.70;;;23.30;;
59416;SDS011;45222;52.458;20.914;2023-11-19T13:40:55;31.40;;;23.90;;
59416;SDS011;45222;52.458;20.914;2023-11-19T13:44:40;28.90;;;22.70;;
59416;SDS011;45222;52.458;20.914;2023-11-19T13:48:25;26.90;;;22.00;;
59416;SDS011;45222;52.458;20.914;2023-11-19T13:52:10;14.30;;;6.20;;
59416;SDS011;45222;52.458;20.914;2023-11-19T13:55:56;27.90;;;22.20;;
59416;SDS011;45222;52.458;20.914;2023-11-19T13:59:42;26.20;;;20.30;;
59416;SDS011;45222;52.458;20.914;2023-11-19T14:03:28;25.90;;;19.50;;
59416;SDS011;45222;52.458;20.914;2023-11-19T14:07:13;19.50;;;7.70;;
59416;SDS011;45222;52.458;20.914;2023-11-19T14:10:58;23.00;;;18.20;;
59416;SDS011;45222;52.458;20.914;2023-11-19T14:14:46;22.10;;;8.60;;
59416;SDS011;45222;52.458;20.914;2023-11-19T14:18:33;27.40;;;21.00;;
59416;SDS011;45222;52.458;20.914;2023-11-19T14:22:18;21.90;;;9.00;;
59416;SDS011;45222;52.458;20.914;2023-11-19T14:26:04;27.10;;;21.50;;
59416;SDS011;45222;52.458;20.914;2023-11-19T14:29:50;26.20;;;20.80;;
59416;SDS011;45222;52.458;20.914;2023-11-19T14:33:35;24.10;;;19.30;;
59416;SDS011;45222;52.458;20.914;2023-11-19T14:37:24;22.10;;;18.00;;
59416;SDS011;45222;52.458;20.914;2023-11-19T14:41:09;23.50;;;19.10;;
59416;SDS011;45222;52.458;20.914;2023-11-19T14:44:54;23.50;;;19.90;;
59416;SDS011;45222;52.458;20.914;2023-11-19T14:48:40;24.20;;;19.70;;
59416;SDS011;45222;52.458;20.914;2023-11-19T14:52:25;22.60;;;18.60;;
59416;SDS011;45222;52.458;20.914;2023-11-19T14:56:11;23.90;;;19.60;;
59416;SDS011;45222;52.458;20.914;2023-11-19T14:59:56;28.40;;;22.50;;
59416;SDS011;45222;52.458;20.914;2023-11-19T15:03:56;21.80;;;10.10;;
59416;SDS011;45222;52.458;20.914;2023-11-19T15:07:41;29.00;;;24.30;;
59416;SDS011;45222;52.458;20.914;2023-11-19T15:11:26;28.20;;;22.20;;
59416;SDS011;45222;52.458;20.914;2023-11-19T15:15:11;28.00;;;21.50;;
59416;SDS011;45222;52.458;20.914;2023-11-19T15:18:57;28.10;;;21.20;;
59416;SDS011;45222;52.458;20.914;2023-11-19T15:22:43;28.00;;;21.60;;
59416;SDS011;45222;52.458;20.914;2023-11-19T15:26:28;26.20;;;10.90;;
59416;SDS011;45222;52.458;20.914;2023-11-19T15:30:13;27.70;;;23.20;;
59416;SDS011;45222;52.458;20.914;2023-11-19T15:33:59;29.60;;;22.60;;
59416;SDS011;45222;52.458;20.914;2023-11-19T15:37:46;28.20;;;11.40;;
59416;SDS011;45222;52.458;20.914;2023-11-19T15:41:31;30.00;;;23.00;;
59416;SDS011;45222;52.458;20.914;2023-11-19T15:45:16;27.10;;;22.70;;
59416;SDS011;45222;52.458;20.914;2023-11-19T15:49:02;30.80;;;25.00;;
59416;SDS011;45222;52.458;20.914;2023-11-19T15:52:47;32.80;;;26.60;;
59416;SDS011;45222;52.458;20.914;2023-11-19T15:56:33;28.70;;;23.20;;
59416;SDS011;45222;52.458;20.914;2023-11-19T16:00:18;30.70;;;23.60;;
59416;SDS011;45222;52.458;20.914;2023-11-19T16:04:05;27.20;;;22.70;;
59416;SDS011;45222;52.458;20.914;2023-11-19T16:07:53;28.30;;;11.90;;
59416;SDS011;45222;52.458;20.914;2023-11-19T16:11:38;31.60;;;26.00;;
59416;SDS011;45222;52.458;20.914;2023-11-19T16:15:27;29.50;;;23.40;;
59416;SDS011;45222;52.458;20.914;2023-11-19T16:19:12;20.40;;;9.50;;
59416;SDS011;45222;52.458;20.914;2023-11-19T16:22:57;31.00;;;24.20;;
59416;SDS011;45222;52.458;20.914;2023-11-19T16:26:44;27.60;;;11.60;;
59416;SDS011;45222;52.458;20.914;2023-11-19T16:30:31;30.40;;;25.20;;
59416;SDS011;45222;52.458;20.914;2023-11-19T16:34:16;29.80;;;24.60;;
59416;SDS011;45222;52.458;20.914;2023-11-19T16:38:02;26.20;;;12.10;;
59416;SDS011;45222;52.458;20.914;2023-11-19T16:41:51;27.30;;;21.60;;
59416;SDS011;45222;52.458;20.914;2023-11-19T16:45:38;25.70;;;11.70;;
59416;SDS011;45222;52.458;20.914;2023-11-19T16:49:23;23.50;;;9.50;;
59416;SDS011;45222;52.458;20.914;2023-11-19T16:53:08;31.00;;;24.60;;
59416;SDS011;45222;52.458;20.914;2023-11-19T16:56:54;28.20;;;22.90;;
59416;SDS011;45222;52.458;20.914;2023-11-19T17:00:39;28.10;;;22.50;;
59416;SDS011;45222;52.458;20.914;2023-11-19T17:04:24;26.60;;;21.50;;
59416;SDS011;45222;52.458;20.914;2023-11-19T17:08:10;27.40;;;22.00;;
59416;SDS011;45222;52.458;20.914;2023-11-19T17:11:55;28.80;;;23.10;;
59416;SDS011;45222;52.458;20.914;2023-11-19T17:15:41;28.10;;;21.60;;
59416;SDS011;45222;52.458;20.914;2023-11-19T17:19:26;19.20;;;9.00;;
59416;SDS011;45222;52.458;20.914;2023-11-19T17:23:11;27.00;;;21.20;;
59416;SDS011;45222;52.458;20.914;2023-11-19T17:26:56;27.20;;;21.60;;
59416;SDS011;45222;52.458;20.914;2023-11-19T17:30:42;27.50;;;22.50;;
59416;SDS011;45222;52.458;20.914;2023-11-19T17:34:28;25.40;;;20.70;;
59416;SDS011;45222;52.458;20.914;2023-11-19T17:38:13;24.90;;;20.40;;
59416;SDS011;45222;52.458;20.914;2023-11-19T17:41:58;25.20;;;19.70;;
59416;SDS011;45222;52.458;20.914;2023-11-19T17:45:45;25.70;;;21.80;;
59416;SDS011;45222;52.458;20.914;2023-11-19T17:49:31;27.50;;;22.40;;
59416;SDS011;45222;52.458;20.914;2023-11-19T17:53:17;27.50;;;21.70;;
59416;SDS011;45222;52.458;20.914;2023-11-19T17:57:04;21.40;;;9.20;;
59416;SDS011;45222;52.458;20.914;2023-11-19T18:00:49;22.20;;;10.50;;
59416;SDS011;45222;52.458;20.914;2023-11-19T18:04:34;25.10;;;20.40;;
59416;SDS011;45222;52.458;20.914;2023-11-19T18:08:21;25.00;;;20.90;;
59416;SDS011;45222;52.458;20.914;2023-11-19T18:12:07;26.60;;;21.20;;
59416;SDS011;45222;52.458;20.914;2023-11-19T18:15:52;25.50;;;20.40;;
59416;SDS011;45222;52.458;20.914;2023-11-19T18:19:38;24.90;;;19.60;;
59416;SDS011;45222;52.458;20.914;2023-11-19T18:23:24;24.00;;;19.20;;
59416;SDS011;45222;52.458;20.914;2023-11-19T18:27:09;17.80;;;8.00;;
59416;SDS011;45222;52.458;20.914;2023-11-19T18:30:54;24.60;;;20.50;;
59416;SDS011;45222;52.458;20.914;2023-11-19T18:34:40;24.70;;;20.30;;
59416;SDS011;45222;52.458;20.914;2023-11-19T18:38:25;25.30;;;19.50;;
59416;SDS011;45222;52.458;20.914;2023-11-19T18:42:11;23.20;;;18.30;;
59416;SDS011;45222;52.458;20.914;2023-11-19T18:45:57;20.90;;;8.70;;
59416;SDS011;45222;52.458;20.914;2023-11-19T18:49:43;25.10;;;20.50;;
59416;SDS011;45222;52.458;20.914;2023-11-19T18:53:28;23.90;;;19.20;;
59416;SDS011;45222;52.458;20.914;2023-11-19T18:57:14;23.20;;;18.50;;
59416;SDS011;45222;52.458;20.914;2023-11-19T19:00:59;18.60;;;9.50;;
59416;SDS011;45222;52.458;20.914;2023-11-19T19:04:44;23.10;;;18.10;;
59416;SDS011;45222;52.458;20.914;2023-11-19T19:08:30;24.60;;;19.50;;
59416;SDS011;45222;52.458;20.914;2023-11-19T19:12:16;26.80;;;21.50;;
59416;SDS011;45222;52.458;20.914;2023-11-19T19:16:05;25.50;;;20.00;;
59416;SDS011;45222;52.458;20.914;2023-11-19T19:19:52;25.00;;;19.00;;
59416;SDS011;45222;52.458;20.914;2023-11-19T19:23:37;24.30;;;19.50;;
59416;SDS011;45222;52.458;20.914;2023-11-19T19:27:23;26.60;;;19.60;;
59416;SDS011;45222;52.458;20.914;2023-11-19T19:31:08;26.10;;;21.10;;
59416;SDS011;45222;52.458;20.914;2023-11-19T19:35:00;25.20;;;20.30;;
59416;SDS011;45222;52.458;20.914;2023-11-19T19:38:45;24.00;;;19.80;;
59416;SDS011;45222;52.458;20.914;2023-11-19T19:42:30;24.30;;;19.00;;
59416;SDS011;45222;52.458;20.914;2023-11-19T19:46:16;24.40;;;20.00;;
59416;SDS011;45222;52.458;20.914;2023-11-19T19:50:02;27.10;;;21.90;;
59416;SDS011;45222;52.458;20.914;2023-11-19T19:53:55;26.90;;;21.00;;
59416;SDS011;45222;52.458;20.914;2023-11-19T19:57:40;24.70;;;9.30;;
59416;SDS011;45222;52.458;20.914;2023-11-19T20:01:25;26.10;;;20.00;;
59416;SDS011;45222;52.458;20.914;2023-11-19T20:05:11;25.40;;;20.10;;
59416;SDS011;45222;52.458;20.914;2023-11-19T20:08:58;22.00;;;9.50;;
59416;SDS011;45222;52.458;20.914;2023-11-19T20:12:46;27.00;;;22.00;;
59416;SDS011;45222;52.458;20.914;2023-11-19T20:16:31;24.40;;;20.40;;
59416;SDS011;45222;52.458;20.914;2023-11-19T20:20:17;24.70;;;19.00;;
59416;SDS011;45222;52.458;20.914;2023-11-19T20:24:02;25.20;;;20.90;;
59416;SDS011;45222;52.458;20.914;2023-11-19T20:27:53;25.00;;;20.10;;
59416;SDS011;45222;52.458;20.914;2023-11-19T20:31:42;24.90;;;20.20;;
59416;SDS011;45222;52.458;20.914;2023-11-19T20:35:27;27.50;;;22.10;;
59416;SDS011;45222;52.458;20.914;2023-11-19T20:39:17;24.40;;;20.00;;
59416;SDS011;45222;52.458;20.914;2023-11-19T20:43:02;25.00;;;19.90;;
59416;SDS011;45222;52.458;20.914;2023-11-19T20:46:47;24.20;;;19.40;;
59416;SDS011;45222;52.458;20.914;2023-11-19T20:50:34;24.70;;;20.30;;
59416;SDS011;45222;52.458;20.914;2023-11-19T20:54:19;25.70;;;21.10;;
59416;SDS011;45222;52.458;20.914;2023-11-19T20:58:05;24.60;;;19.50;;
59416;SDS011;45222;52.458;20.914;2023-11-19T21:01:53;25.70;;;20.00;;
59416;SDS011;45222;52.458;20.914;2023-11-19T21:05:38;25.70;;;19.10;;
59416;SDS011;45222;52.458;20.914;2023-11-19T21:09:23;24.40;;;18.90;;
59416;SDS011;45222;52.458;20.914;2023-11-19T21:13:09;24.60;;;19.90;;
59416;SDS011;45222;52.458;20.914;2023-11-19T21:16:55;17.30;;;8.00;;
59416;SDS011;45222;52.458;20.914;2023-11-19T21:20:40;24.20;;;17.40;;
59416;SDS011;45222;52.458;20.914;2023-11-19T21:24:25;19.60;;;9.30;;
59416;SDS011;45222;52.458;20.914;2023-11-19T21:28:11;21.00;;;17.50;;
59416;SDS011;45222;52.458;20.914;2023-11-19T21:31:57;16.40;;;7.40;;
59416;SDS011;45222;52.458;20.914;2023-11-19T21:35:43;25.10;;;19.90;;
59416;SDS011;45222;52.458;20.914;2023-11-19T21:39:28;20.70;;;9.00;;
59416;SDS011;45222;52.458;20.914;2023-11-19T21:43:14;22.30;;;17.70;;
59416;SDS011;45222;52.458;20.914;2023-11-19T21:46:59;21.60;;;17.30;;
59416;SDS011;45222;52.458;20.914;2023-11-19T21:50:44;21.40;;;16.90;;